sensor_id;sensor_type;location;lat;lon;timestamp;pressure;altitude;pressure_sealevel;temperature;humidity
70976;BME280;58635;51.198;6.010;2022-12-28T00:01:19;101621.16;;;9.49;62.54
70976;BME280;58635;51.198;6.010;2022-12-28T00:03:45;101615.00;;;9.50;62.52
70976;BME280;58635;51.198;6.010;2022-12-28T00:06:12;101617.59;;;9.50;62.58
70976;BME280;58635;51.198;6.010;2022-12-28T00:08:37;101601.94;;;9.52;62.66
70976;BME280;58635;51.198;6.010;2022-12-28T00:11:09;101602.91;;;9.51;62.74
70976;BME280;58635;51.198;6.010;2022-12-28T00:13:35;101600.97;;;9.53;62.72
70976;BME280;58635;51.198;6.010;2022-12-28T00:16:22;101596.59;;;9.53;62.76
70976;BME280;58635;51.198;6.010;2022-12-28T00:18:48;101597.41;;;9.54;62.88
70976;BME280;58635;51.198;6.010;2022-12-28T00:21:14;101586.91;;;9.55;62.95
70976;BME280;58635;51.198;6.010;2022-12-28T00:23:39;101586.91;;;9.55;63.10
70976;BME280;58635;51.198;6.010;2022-12-28T00:26:09;101570.59;;;9.55;63.08
70976;BME280;58635;51.198;6.010;2022-12-28T00:28:36;101564.13;;;9.59;63.16
70976;BME280;58635;51.198;6.010;2022-12-28T00:31:01;101546.88;;;9.59;63.22
70976;BME280;58635;51.198;6.010;2022-12-28T00:33:27;101545.22;;;9.58;63.61
70976;BME280;58635;51.198;6.010;2022-12-28T00:35:54;101547.81;;;9.58;63.68
70976;BME280;58635;51.198;6.010;2022-12-28T00:38:20;101541.03;;;9.57;63.67
70976;BME280;58635;51.198;6.010;2022-12-28T00:40:45;101532.31;;;9.58;63.92
70976;BME280;58635;51.198;6.010;2022-12-28T00:43:10;101536.84;;;9.56;63.98
70976;BME280;58635;51.198;6.010;2022-12-28T00:45:36;101520.56;;;9.56;64.29
70976;BME280;58635;51.198;6.010;2022-12-28T00:48:01;101511.84;;;9.57;64.11
70976;BME280;58635;51.198;6.010;2022-12-28T00:50:27;101498.91;;;9.57;64.27
70976;BME280;58635;51.198;6.010;2022-12-28T00:52:52;101511.66;;;9.58;64.14
70976;BME280;58635;51.198;6.010;2022-12-28T00:55:18;101486.63;;;9.59;64.23
70976;BME280;58635;51.198;6.010;2022-12-28T00:57:43;101489.88;;;9.61;64.30
70976;BME280;58635;51.198;6.010;2022-12-28T01:00:09;101489.09;;;9.60;64.40
70976;BME280;58635;51.198;6.010;2022-12-28T01:02:34;101480.97;;;9.63;64.40
70976;BME280;58635;51.198;6.010;2022-12-28T01:05:00;101473.88;;;9.65;64.23
70976;BME280;58635;51.198;6.010;2022-12-28T01:07:25;101464.34;;;9.66;64.31
70976;BME280;58635;51.198;6.010;2022-12-28T01:09:50;101470.75;;;9.70;64.24
70976;BME280;58635;51.198;6.010;2022-12-28T01:12:16;101460.28;;;9.72;64.10
70976;BME280;58635;51.198;6.010;2022-12-28T01:14:41;101460.28;;;9.72;64.31
70976;BME280;58635;51.198;6.010;2022-12-28T01:17:06;101454.94;;;9.73;64.21
70976;BME280;58635;51.198;6.010;2022-12-28T01:19:32;101453.78;;;9.76;64.20
70976;BME280;58635;51.198;6.010;2022-12-28T01:21:57;101445.06;;;9.77;64.14
70976;BME280;58635;51.198;6.010;2022-12-28T01:24:22;101447.47;;;9.78;64.23
70976;BME280;58635;51.198;6.010;2022-12-28T01:26:48;101452.81;;;9.77;64.30
70976;BME280;58635;51.198;6.010;2022-12-28T01:29:13;101449.88;;;9.80;64.08
70976;BME280;58635;51.198;6.010;2022-12-28T01:31:39;101446.13;;;9.82;64.65
70976;BME280;58635;51.198;6.010;2022-12-28T01:34:04;101442.59;;;9.83;64.16
70976;BME280;58635;51.198;6.010;2022-12-28T01:36:31;101446.63;;;9.86;64.01
70976;BME280;58635;51.198;6.010;2022-12-28T01:38:59;101445.66;;;9.87;64.06
70976;BME280;58635;51.198;6.010;2022-12-28T01:41:27;101449.03;;;9.87;63.94
70976;BME280;58635;51.198;6.010;2022-12-28T01:46:21;101433.00;;;9.92;63.98
70976;BME280;58635;51.198;6.010;2022-12-28T01:48:56;101436.22;;;9.94;63.82
70976;BME280;58635;51.198;6.010;2022-12-28T01:51:27;101429.75;;;9.98;63.88
70976;BME280;58635;51.198;6.010;2022-12-28T01:53:55;101427.97;;;9.99;63.76
70976;BME280;58635;51.198;6.010;2022-12-28T01:56:23;101425.03;;;10.02;63.70
70976;BME280;58635;51.198;6.010;2022-12-28T01:58:49;101423.84;;;10.04;63.51
70976;BME280;58635;51.198;6.010;2022-12-28T02:01:15;101425.31;;;10.07;63.70
70976;BME280;58635;51.198;6.010;2022-12-28T02:03:41;101425.94;;;10.09;63.65
70976;BME280;58635;51.198;6.010;2022-12-28T02:06:10;101418.00;;;10.10;63.80
70976;BME280;58635;51.198;6.010;2022-12-28T02:09:00;101408.28;;;10.12;63.70
70976;BME280;58635;51.198;6.010;2022-12-28T02:11:28;101408.13;;;10.14;63.80
70976;BME280;58635;51.198;6.010;2022-12-28T02:13:54;101405.34;;;10.15;63.78
70976;BME280;58635;51.198;6.010;2022-12-28T02:16:20;101396.44;;;10.18;63.63
70976;BME280;58635;51.198;6.010;2022-12-28T02:18:46;101389.34;;;10.20;63.50
70976;BME280;58635;51.198;6.010;2022-12-28T02:21:23;101389.19;;;10.21;63.52
70976;BME280;58635;51.198;6.010;2022-12-28T02:26:37;101385.44;;;10.24;63.67
70976;BME280;58635;51.198;6.010;2022-12-28T02:34:44;101366.47;;;10.32;63.35
70976;BME280;58635;51.198;6.010;2022-12-28T02:37:17;101347.56;;;10.31;63.47
70976;BME280;58635;51.198;6.010;2022-12-28T02:42:39;101339.00;;;10.31;63.48
70976;BME280;58635;51.198;6.010;2022-12-28T02:45:07;101332.06;;;10.31;63.71
70976;BME280;58635;51.198;6.010;2022-12-28T02:47:51;101334.00;;;10.29;63.73
70976;BME280;58635;51.198;6.010;2022-12-28T02:50:50;101318.16;;;10.32;63.60
70976;BME280;58635;51.198;6.010;2022-12-28T02:56:10;101307.63;;;10.34;63.54
70976;BME280;58635;51.198;6.010;2022-12-28T03:12:39;101293.16;;;10.39;63.60
70976;BME280;58635;51.198;6.010;2022-12-28T03:15:10;101288.59;;;10.41;63.62
70976;BME280;58635;51.198;6.010;2022-12-28T03:17:39;101292.81;;;10.42;63.41
70976;BME280;58635;51.198;6.010;2022-12-28T03:20:29;101287.66;;;10.42;63.69
70976;BME280;58635;51.198;6.010;2022-12-28T03:23:16;101275.53;;;10.43;63.69
70976;BME280;58635;51.198;6.010;2022-12-28T03:26:02;101269.72;;;10.41;63.74
70976;BME280;58635;51.198;6.010;2022-12-28T03:28:48;101273.56;;;10.45;63.77
70976;BME280;58635;51.198;6.010;2022-12-28T03:31:35;101272.56;;;10.46;64.08
70976;BME280;58635;51.198;6.010;2022-12-28T03:34:02;101280.94;;;10.48;63.75
70976;BME280;58635;51.198;6.010;2022-12-28T03:47:43;101252.13;;;10.51;64.30
70976;BME280;58635;51.198;6.010;2022-12-28T03:50:11;101248.56;;;10.52;64.52
70976;BME280;58635;51.198;6.010;2022-12-28T03:52:38;101246.44;;;10.56;64.65
70976;BME280;58635;51.198;6.010;2022-12-28T03:55:04;101234.50;;;10.54;65.00
70976;BME280;58635;51.198;6.010;2022-12-28T03:57:29;101236.88;;;10.56;64.88
70976;BME280;58635;51.198;6.010;2022-12-28T03:59:55;101229.13;;;10.56;64.88
70976;BME280;58635;51.198;6.010;2022-12-28T04:02:20;101236.34;;;10.61;64.92
70976;BME280;58635;51.198;6.010;2022-12-28T04:04:46;101219.63;;;10.63;64.95
70976;BME280;58635;51.198;6.010;2022-12-28T04:07:11;101214.84;;;10.60;64.84
70976;BME280;58635;51.198;6.010;2022-12-28T04:09:37;101221.25;;;10.64;64.86
70976;BME280;58635;51.198;6.010;2022-12-28T04:12:02;101212.34;;;10.67;64.64
70976;BME280;58635;51.198;6.010;2022-12-28T04:14:28;101217.13;;;10.70;64.94
70976;BME280;58635;51.198;6.010;2022-12-28T04:16:53;101205.81;;;10.71;64.80
70976;BME280;58635;51.198;6.010;2022-12-28T04:19:18;101197.25;;;10.70;64.92
70976;BME280;58635;51.198;6.010;2022-12-28T04:21:44;101212.38;;;10.73;64.76
70976;BME280;58635;51.198;6.010;2022-12-28T04:24:09;101205.44;;;10.74;64.83
70976;BME280;58635;51.198;6.010;2022-12-28T04:26:35;101204.25;;;10.76;64.85
70976;BME280;58635;51.198;6.010;2022-12-28T04:29:00;101198.72;;;10.79;64.92
70976;BME280;58635;51.198;6.010;2022-12-28T04:31:27;101195.94;;;10.81;64.95
70976;BME280;58635;51.198;6.010;2022-12-28T04:33:55;101201.94;;;10.81;65.04
70976;BME280;58635;51.198;6.010;2022-12-28T04:36:21;101200.56;;;10.86;64.93
70976;BME280;58635;51.198;6.010;2022-12-28T04:38:46;101209.13;;;10.86;65.10
70976;BME280;58635;51.198;6.010;2022-12-28T04:41:12;101204.75;;;10.87;65.37
70976;BME280;58635;51.198;6.010;2022-12-28T04:43:38;101197.97;;;10.86;65.29
70976;BME280;58635;51.198;6.010;2022-12-28T04:46:07;101201.97;;;10.88;65.34
70976;BME280;58635;51.198;6.010;2022-12-28T04:48:34;101195.66;;;10.91;65.39
70976;BME280;58635;51.198;6.010;2022-12-28T04:51:08;101192.06;;;10.92;65.29
70976;BME280;58635;51.198;6.010;2022-12-28T04:53:38;101203.03;;;10.94;65.31
70976;BME280;58635;51.198;6.010;2022-12-28T04:56:05;101196.88;;;10.95;65.34
70976;BME280;58635;51.198;6.010;2022-12-28T04:58:30;101193.28;;;10.96;65.11
70976;BME280;58635;51.198;6.010;2022-12-28T05:01:08;101193.91;;;10.98;65.29
70976;BME280;58635;51.198;6.010;2022-12-28T05:03:34;101182.56;;;10.99;65.20
70976;BME280;58635;51.198;6.010;2022-12-28T05:06:05;101184.97;;;11.00;65.44
70976;BME280;58635;51.198;6.010;2022-12-28T05:08:32;101184.16;;;11.00;65.38
70976;BME280;58635;51.198;6.010;2022-12-28T05:10:59;101168.28;;;11.03;65.45
70976;BME280;58635;51.198;6.010;2022-12-28T05:13:25;101187.00;;;11.05;65.49
70976;BME280;58635;51.198;6.010;2022-12-28T05:15:50;101186.03;;;11.06;65.24
70976;BME280;58635;51.198;6.010;2022-12-28T05:18:15;101173.88;;;11.06;65.48
70976;BME280;58635;51.198;6.010;2022-12-28T05:20:41;101168.69;;;11.06;65.40
70976;BME280;58635;51.198;6.010;2022-12-28T05:23:06;101175.91;;;11.11;65.43
70976;BME280;58635;51.198;6.010;2022-12-28T05:25:32;101172.50;;;11.10;65.41
70976;BME280;58635;51.198;6.010;2022-12-28T05:27:57;101168.94;;;11.11;65.38
70976;BME280;58635;51.198;6.010;2022-12-28T05:30:22;101185.91;;;11.14;65.46
70976;BME280;58635;51.198;6.010;2022-12-28T05:32:48;101177.16;;;11.15;65.43
70976;BME280;58635;51.198;6.010;2022-12-28T05:35:13;101174.97;;;11.19;65.38
70976;BME280;58635;51.198;6.010;2022-12-28T05:37:38;101168.00;;;11.19;65.18
70976;BME280;58635;51.198;6.010;2022-12-28T05:40:04;101185.13;;;11.20;65.40
70976;BME280;58635;51.198;6.010;2022-12-28T05:42:30;101169.41;;;11.22;65.51
70976;BME280;58635;51.198;6.010;2022-12-28T05:44:56;101169.41;;;11.22;65.53
70976;BME280;58635;51.198;6.010;2022-12-28T05:47:21;101177.19;;;11.22;65.63
70976;BME280;58635;51.198;6.010;2022-12-28T05:49:47;101161.66;;;11.22;66.00
70976;BME280;58635;51.198;6.010;2022-12-28T05:52:12;101166.81;;;11.22;65.87
70976;BME280;58635;51.198;6.010;2022-12-28T05:54:37;101159.06;;;11.22;65.79
70976;BME280;58635;51.198;6.010;2022-12-28T05:57:03;101154.06;;;11.20;65.76
70976;BME280;58635;51.198;6.010;2022-12-28T05:59:28;101173.97;;;11.20;65.94
70976;BME280;58635;51.198;6.010;2022-12-28T06:01:53;101165.03;;;11.22;65.98
70976;BME280;58635;51.198;6.010;2022-12-28T06:04:19;101157.28;;;11.22;66.15
70976;BME280;58635;51.198;6.010;2022-12-28T06:06:46;101148.50;;;11.23;66.17
70976;BME280;58635;51.198;6.010;2022-12-28T06:09:12;101148.34;;;11.25;65.85
70976;BME280;58635;51.198;6.010;2022-12-28T06:11:39;101143.34;;;11.23;66.07
70976;BME280;58635;51.198;6.010;2022-12-28T06:14:04;101145.56;;;11.26;66.01
70976;BME280;58635;51.198;6.010;2022-12-28T06:16:33;101141.97;;;11.27;66.15
70976;BME280;58635;51.198;6.010;2022-12-28T06:19:03;101144.75;;;11.26;66.24
70976;BME280;58635;51.198;6.010;2022-12-28T06:21:30;101147.16;;;11.27;66.14
70976;BME280;58635;51.198;6.010;2022-12-28T06:23:57;101141.19;;;11.27;66.15
70976;BME280;58635;51.198;6.010;2022-12-28T06:26:23;101150.56;;;11.28;66.03
70976;BME280;58635;51.198;6.010;2022-12-28T06:28:49;101153.75;;;11.30;66.24
70976;BME280;58635;51.198;6.010;2022-12-28T06:31:16;101146.97;;;11.29;66.27
70976;BME280;58635;51.198;6.010;2022-12-28T06:33:43;101146.97;;;11.29;66.30
70976;BME280;58635;51.198;6.010;2022-12-28T06:36:20;101141.41;;;11.32;66.07
70976;BME280;58635;51.198;6.010;2022-12-28T06:38:49;101130.44;;;11.30;66.18
70976;BME280;58635;51.198;6.010;2022-12-28T06:41:16;101135.63;;;11.30;66.09
70976;BME280;58635;51.198;6.010;2022-12-28T06:43:42;101138.63;;;11.33;66.04
70976;BME280;58635;51.198;6.010;2022-12-28T06:46:09;101140.81;;;11.36;66.02
70976;BME280;58635;51.198;6.010;2022-12-28T06:48:35;101128.72;;;11.37;66.05
70976;BME280;58635;51.198;6.010;2022-12-28T06:51:03;101130.31;;;11.38;66.01
70976;BME280;58635;51.198;6.010;2022-12-28T06:53:34;101135.28;;;11.39;66.12
70976;BME280;58635;51.198;6.010;2022-12-28T06:56:11;101128.31;;;11.40;65.89
70976;BME280;58635;51.198;6.010;2022-12-28T06:58:37;101125.72;;;11.40;66.12
70976;BME280;58635;51.198;6.010;2022-12-28T07:01:07;101122.34;;;11.39;66.24
70976;BME280;58635;51.198;6.010;2022-12-28T07:03:32;101129.50;;;11.37;66.26
70976;BME280;58635;51.198;6.010;2022-12-28T07:06:02;101129.13;;;11.40;66.29
70976;BME280;58635;51.198;6.010;2022-12-28T07:08:28;101120.56;;;11.40;66.40
70976;BME280;58635;51.198;6.010;2022-12-28T07:10:54;101116.38;;;11.39;66.44
70976;BME280;58635;51.198;6.010;2022-12-28T07:13:20;101127.53;;;11.39;66.74
70976;BME280;58635;51.198;6.010;2022-12-28T07:15:45;101127.72;;;11.38;66.68
70976;BME280;58635;51.198;6.010;2022-12-28T07:18:10;101124.94;;;11.39;66.87
70976;BME280;58635;51.198;6.010;2022-12-28T07:20:36;101127.72;;;11.38;67.00
70976;BME280;58635;51.198;6.010;2022-12-28T07:23:01;101128.50;;;11.38;67.04
70976;BME280;58635;51.198;6.010;2022-12-28T07:25:27;101121.75;;;11.37;67.30
70976;BME280;58635;51.198;6.010;2022-12-28T07:27:52;101127.72;;;11.38;67.25
70976;BME280;58635;51.198;6.010;2022-12-28T07:30:18;101118.34;;;11.37;67.36
70976;BME280;58635;51.198;6.010;2022-12-28T07:32:43;101118.72;;;11.34;67.54
70976;BME280;58635;51.198;6.010;2022-12-28T07:35:09;101126.28;;;11.35;67.51
70976;BME280;58635;51.198;6.010;2022-12-28T07:37:34;101120.50;;;11.33;67.69
70976;BME280;58635;51.198;6.010;2022-12-28T07:40:00;101116.72;;;11.36;67.50
70976;BME280;58635;51.198;6.010;2022-12-28T07:42:27;101110.75;;;11.35;67.48
70976;BME280;58635;51.198;6.010;2022-12-28T07:44:53;101120.31;;;11.35;67.85
70976;BME280;58635;51.198;6.010;2022-12-28T07:47:18;101123.88;;;11.34;68.08
70976;BME280;58635;51.198;6.010;2022-12-28T07:49:44;101129.06;;;11.34;67.95
70976;BME280;58635;51.198;6.010;2022-12-28T07:52:09;101114.53;;;11.33;67.86
70976;BME280;58635;51.198;6.010;2022-12-28T07:54:34;101119.50;;;11.34;68.31
70976;BME280;58635;51.198;6.010;2022-12-28T07:57:00;101129.66;;;11.36;67.90
70976;BME280;58635;51.198;6.010;2022-12-28T07:59:25;101124.31;;;11.37;68.00
70976;BME280;58635;51.198;6.010;2022-12-28T08:01:51;101120.75;;;11.38;68.24
70976;BME280;58635;51.198;6.010;2022-12-28T08:04:17;101115.56;;;11.38;68.04
70976;BME280;58635;51.198;6.010;2022-12-28T08:06:44;101127.53;;;11.39;68.08
70976;BME280;58635;51.198;6.010;2022-12-28T08:09:12;101124.75;;;11.41;68.09
70976;BME280;58635;51.198;6.010;2022-12-28T08:11:40;101120.56;;;11.40;68.15
70976;BME280;58635;51.198;6.010;2022-12-28T08:14:08;101118.34;;;11.37;68.06
70976;BME280;58635;51.198;6.010;2022-12-28T08:16:36;101127.31;;;11.41;68.32
70976;BME280;58635;51.198;6.010;2022-12-28T08:19:03;101127.31;;;11.41;68.03
70976;BME280;58635;51.198;6.010;2022-12-28T08:21:31;101119.16;;;11.44;67.80
70976;BME280;58635;51.198;6.010;2022-12-28T08:23:57;101120.38;;;11.48;67.86
70976;BME280;58635;51.198;6.010;2022-12-28T08:26:35;101122.97;;;11.48;67.68
70976;BME280;58635;51.198;6.010;2022-12-28T08:29:03;101127.00;;;11.51;67.67
70976;BME280;58635;51.198;6.010;2022-12-28T08:31:34;101121.00;;;11.50;67.70
70976;BME280;58635;51.198;6.010;2022-12-28T08:34:01;101121.81;;;11.51;67.69
70976;BME280;58635;51.198;6.010;2022-12-28T08:36:27;101133.56;;;11.53;67.35
70976;BME280;58635;51.198;6.010;2022-12-28T08:38:53;101135.78;;;11.56;67.41
70976;BME280;58635;51.198;6.010;2022-12-28T08:41:21;101120.03;;;11.58;67.20
70976;BME280;58635;51.198;6.010;2022-12-28T08:43:48;101127.25;;;11.62;67.04
70976;BME280;58635;51.198;6.010;2022-12-28T08:46:20;101125.28;;;11.64;67.06
70976;BME280;58635;51.198;6.010;2022-12-28T08:48:47;101126.06;;;11.65;67.13
70976;BME280;58635;51.198;6.010;2022-12-28T08:51:18;101119.31;;;11.70;67.03
70976;BME280;58635;51.198;6.010;2022-12-28T08:53:44;101126.91;;;11.72;67.02
70976;BME280;58635;51.198;6.010;2022-12-28T08:56:11;101120.09;;;11.71;66.90
70976;BME280;58635;51.198;6.010;2022-12-28T08:58:38;101118.75;;;11.75;67.02
70976;BME280;58635;51.198;6.010;2022-12-28T09:03:35;101114.16;;;11.77;66.90
70976;BME280;58635;51.198;6.010;2022-12-28T09:06:03;101119.00;;;11.80;66.65
70976;BME280;58635;51.198;6.010;2022-12-28T09:08:29;101124.56;;;11.84;66.63
70976;BME280;58635;51.198;6.010;2022-12-28T09:10:58;101118.44;;;11.85;66.32
70976;BME280;58635;51.198;6.010;2022-12-28T09:13:23;101118.22;;;11.86;66.57
70976;BME280;58635;51.198;6.010;2022-12-28T09:16:01;101113.66;;;11.88;66.26
70976;BME280;58635;51.198;6.010;2022-12-28T09:18:26;101112.66;;;11.89;66.27
70976;BME280;58635;51.198;6.010;2022-12-28T09:20:52;101115.84;;;11.91;66.39
70976;BME280;58635;51.198;6.010;2022-12-28T09:23:17;101113.66;;;11.95;66.05
70976;BME280;58635;51.198;6.010;2022-12-28T09:25:43;101113.84;;;11.93;66.23
70976;BME280;58635;51.198;6.010;2022-12-28T09:28:08;101123.06;;;11.96;66.20
70976;BME280;58635;51.198;6.010;2022-12-28T09:30:33;101122.66;;;11.99;66.05
70976;BME280;58635;51.198;6.010;2022-12-28T09:32:59;101112.69;;;12.03;65.84
70976;BME280;58635;51.198;6.010;2022-12-28T09:35:43;101119.69;;;12.02;65.67
70976;BME280;58635;51.198;6.010;2022-12-28T09:38:08;101121.88;;;12.05;66.06
70976;BME280;58635;51.198;6.010;2022-12-28T09:40:35;101113.53;;;12.10;65.75
70976;BME280;58635;51.198;6.010;2022-12-28T09:43:01;101120.91;;;12.13;65.77
70976;BME280;58635;51.198;6.010;2022-12-28T09:45:27;101125.91;;;12.14;65.88
70976;BME280;58635;51.198;6.010;2022-12-28T09:47:58;101125.91;;;12.14;65.76
70976;BME280;58635;51.198;6.010;2022-12-28T09:50:27;101118.13;;;12.14;66.10
70976;BME280;58635;51.198;6.010;2022-12-28T09:55:56;101114.13;;;12.18;65.91
70976;BME280;58635;51.198;6.010;2022-12-28T09:58:22;101108.16;;;12.18;66.08
70976;BME280;58635;51.198;6.010;2022-12-28T10:00:50;101107.94;;;12.19;66.10
70976;BME280;58635;51.198;6.010;2022-12-28T10:03:26;101103.78;;;12.25;65.85
70976;BME280;58635;51.198;6.010;2022-12-28T10:05:56;101097.00;;;12.24;65.53
70976;BME280;58635;51.198;6.010;2022-12-28T10:08:24;101096.00;;;12.25;65.68
70976;BME280;58635;51.198;6.010;2022-12-28T10:10:52;101085.63;;;12.25;65.38
70976;BME280;58635;51.198;6.010;2022-12-28T10:13:24;101098.19;;;12.28;65.29
70976;BME280;58635;51.198;6.010;2022-12-28T10:15:51;101093.81;;;12.28;65.23
70976;BME280;58635;51.198;6.010;2022-12-28T10:18:24;101086.47;;;12.32;65.07
70976;BME280;58635;51.198;6.010;2022-12-28T10:20:50;101091.66;;;12.32;65.18
70976;BME280;58635;51.198;6.010;2022-12-28T10:23:19;101081.28;;;12.32;65.21
70976;BME280;58635;51.198;6.010;2022-12-28T10:25:46;101081.66;;;12.36;65.11
70976;BME280;58635;51.198;6.010;2022-12-28T10:28:13;101073.28;;;12.40;64.89
70976;BME280;58635;51.198;6.010;2022-12-28T10:33:41;101084.06;;;12.44;64.96
70976;BME280;58635;51.198;6.010;2022-12-28T10:36:14;101074.50;;;12.44;64.87
70976;BME280;58635;51.198;6.010;2022-12-28T10:38:48;101080.09;;;12.48;64.69
70976;BME280;58635;51.198;6.010;2022-12-28T10:41:15;101065.91;;;12.50;64.66
70976;BME280;58635;51.198;6.010;2022-12-28T10:43:45;101063.72;;;12.54;64.37
70976;BME280;58635;51.198;6.010;2022-12-28T10:46:16;101065.13;;;12.56;63.98
70976;BME280;58635;51.198;6.010;2022-12-28T10:48:46;101057.94;;;12.58;64.11
70976;BME280;58635;51.198;6.010;2022-12-28T10:51:15;101060.94;;;12.62;63.87
70976;BME280;58635;51.198;6.010;2022-12-28T10:58:37;101052.34;;;12.75;63.77
70976;BME280;58635;51.198;6.010;2022-12-28T11:03:33;101059.13;;;12.82;63.30
70976;BME280;58635;51.198;6.010;2022-12-28T11:06:19;101051.94;;;12.84;63.03
70976;BME280;58635;51.198;6.010;2022-12-28T11:08:59;101046.34;;;12.87;62.82
70976;BME280;58635;51.198;6.010;2022-12-28T11:11:24;101044.94;;;12.85;63.18
70976;BME280;58635;51.198;6.010;2022-12-28T11:13:56;101041.72;;;12.89;63.03
70976;BME280;58635;51.198;6.010;2022-12-28T11:16:24;101041.72;;;12.89;63.27
70976;BME280;58635;51.198;6.010;2022-12-28T11:18:50;101042.53;;;12.90;63.57
70976;BME280;58635;51.198;6.010;2022-12-28T11:21:20;101036.94;;;12.86;63.60
70976;BME280;58635;51.198;6.010;2022-12-28T11:23:50;101021.38;;;12.93;63.63
70976;BME280;58635;51.198;6.010;2022-12-28T11:26:16;101030.56;;;12.96;63.73
70976;BME280;58635;51.198;6.010;2022-12-28T11:28:43;101017.38;;;12.97;63.73
70976;BME280;58635;51.198;6.010;2022-12-28T11:31:29;101015.94;;;13.01;63.45
70976;BME280;58635;51.198;6.010;2022-12-28T11:33:59;101012.97;;;13.04;63.35
70976;BME280;58635;51.198;6.010;2022-12-28T11:36:29;101014.34;;;13.07;63.08
70976;BME280;58635;51.198;6.010;2022-12-28T11:38:56;101008.94;;;13.08;63.07
70976;BME280;58635;51.198;6.010;2022-12-28T11:51:26;101003.75;;;13.02;63.41
70976;BME280;58635;51.198;6.010;2022-12-28T11:54:04;100996.97;;;13.01;63.40
70976;BME280;58635;51.198;6.010;2022-12-28T12:01:50;100986.59;;;13.01;63.27
70976;BME280;58635;51.198;6.010;2022-12-28T12:04:35;100975.81;;;13.04;63.13
70976;BME280;58635;51.198;6.010;2022-12-28T12:09:40;100966.81;;;13.06;63.02
70976;BME280;58635;51.198;6.010;2022-12-28T12:14:42;100955.22;;;13.09;63.26
70976;BME280;58635;51.198;6.010;2022-12-28T12:17:22;100945.84;;;13.08;63.01
70976;BME280;58635;51.198;6.010;2022-12-28T12:19:55;100946.41;;;13.10;62.96
70976;BME280;58635;51.198;6.010;2022-12-28T12:22:28;100946.84;;;13.07;62.73
70976;BME280;58635;51.198;6.010;2022-12-28T12:25:01;100937.25;;;13.07;62.68
70976;BME280;58635;51.198;6.010;2022-12-28T12:30:20;100925.44;;;13.11;62.39
70976;BME280;58635;51.198;6.010;2022-12-28T12:33:02;100920.44;;;13.10;62.44
70976;BME280;58635;51.198;6.010;2022-12-28T12:35:31;100914.03;;;13.12;61.99
70976;BME280;58635;51.198;6.010;2022-12-28T12:41:21;100896.28;;;13.09;61.53
70976;BME280;58635;51.198;6.010;2022-12-28T12:44:18;100898.47;;;13.12;61.59
70976;BME280;58635;51.198;6.010;2022-12-28T12:52:34;100893.66;;;13.16;61.30
70976;BME280;58635;51.198;6.010;2022-12-28T12:57:34;100877.69;;;13.19;60.66
70976;BME280;58635;51.198;6.010;2022-12-28T13:02:59;100881.66;;;13.22;60.07
70976;BME280;58635;51.198;6.010;2022-12-28T13:05:30;100867.69;;;13.23;60.18
70976;BME280;58635;51.198;6.010;2022-12-28T13:07:57;100857.88;;;13.25;60.13
70976;BME280;58635;51.198;6.010;2022-12-28T13:10:36;100853.28;;;13.27;59.92
70976;BME280;58635;51.198;6.010;2022-12-28T13:13:05;100860.66;;;13.30;59.66
70976;BME280;58635;51.198;6.010;2022-12-28T13:15:31;100846.88;;;13.29;59.38
70976;BME280;58635;51.198;6.010;2022-12-28T13:18:12;100846.09;;;13.29;59.10
70976;BME280;58635;51.198;6.010;2022-12-28T13:20:39;100842.50;;;13.23;59.22
70976;BME280;58635;51.198;6.010;2022-12-28T13:23:14;100830.88;;;13.26;58.85
70976;BME280;58635;51.198;6.010;2022-12-28T13:25:44;100842.50;;;13.23;59.06
70976;BME280;58635;51.198;6.010;2022-12-28T13:28:18;100834.50;;;13.25;58.83
70976;BME280;58635;51.198;6.010;2022-12-28T13:31:04;100834.72;;;13.23;58.93
70976;BME280;58635;51.198;6.010;2022-12-28T13:33:30;100839.09;;;13.23;59.01
70976;BME280;58635;51.198;6.010;2022-12-28T13:38:34;100822.13;;;13.27;59.08
70976;BME280;58635;51.198;6.010;2022-12-28T13:41:00;100815.31;;;13.26;59.17
70976;BME280;58635;51.198;6.010;2022-12-28T13:46:21;100802.72;;;13.29;59.20
70976;BME280;58635;51.198;6.010;2022-12-28T13:48:49;100793.28;;;13.35;58.95
70976;BME280;58635;51.198;6.010;2022-12-28T13:51:18;100790.47;;;13.36;58.93
70976;BME280;58635;51.198;6.010;2022-12-28T13:53:48;100792.66;;;13.39;58.79
70976;BME280;58635;51.198;6.010;2022-12-28T13:56:17;100787.47;;;13.39;58.48
70976;BME280;58635;51.198;6.010;2022-12-28T13:58:48;100774.06;;;13.36;58.60
70976;BME280;58635;51.198;6.010;2022-12-28T14:01:19;100772.50;;;13.35;58.60
70976;BME280;58635;51.198;6.010;2022-12-28T14:03:45;100768.66;;;13.37;58.49
70976;BME280;58635;51.198;6.010;2022-12-28T14:06:14;100765.72;;;13.34;58.66
70976;BME280;58635;51.198;6.010;2022-12-28T14:08:41;100767.50;;;13.33;58.59
70976;BME280;58635;51.198;6.010;2022-12-28T14:11:07;100763.91;;;13.34;58.52
70976;BME280;58635;51.198;6.010;2022-12-28T14:13:35;100760.72;;;13.32;58.41
70976;BME280;58635;51.198;6.010;2022-12-28T14:16:01;100750.56;;;13.31;58.60
70976;BME280;58635;51.198;6.010;2022-12-28T14:18:28;100756.75;;;13.30;58.61
70976;BME280;58635;51.198;6.010;2022-12-28T14:20:56;100745.78;;;13.28;58.78
70976;BME280;58635;51.198;6.010;2022-12-28T14:25:50;100738.22;;;13.26;58.67
70976;BME280;58635;51.198;6.010;2022-12-28T14:31:04;100723.03;;;13.23;58.39
70976;BME280;58635;51.198;6.010;2022-12-28T14:33:34;100717.84;;;13.23;58.30
70976;BME280;58635;51.198;6.010;2022-12-28T14:36:02;100708.25;;;13.24;58.48
70976;BME280;58635;51.198;6.010;2022-12-28T14:38:39;100706.44;;;13.24;58.45
70976;BME280;58635;51.198;6.010;2022-12-28T14:41:17;100699.44;;;13.25;58.28
70976;BME280;58635;51.198;6.010;2022-12-28T14:43:43;100689.53;;;13.15;58.62
70976;BME280;58635;51.198;6.010;2022-12-28T14:46:31;100689.09;;;13.18;58.39